sensor_id;sensor_type;location;lat;lon;timestamp;temperature;humidity
20827;DHT22;10574;52.508;13.236;2023-06-22T00:01:34;20.90;99.90
20827;DHT22;10574;52.508;13.236;2023-06-22T00:04:01;20.90;99.90
20827;DHT22;10574;52.508;13.236;2023-06-22T00:06:29;20.80;99.90
20827;DHT22;10574;52.508;13.236;2023-06-22T00:08:57;20.80;99.90
20827;DHT22;10574;52.508;13.236;2023-06-22T00:11:24;20.80;99.90
20827;DHT22;10574;52.508;13.236;2023-06-22T00:13:52;20.80;99.90
20827;DHT22;10574;52.508;13.236;2023-06-22T00:16:20;20.70;99.90
20827;DHT22;10574;52.508;13.236;2023-06-22T00:18:47;20.70;99.90
20827;DHT22;10574;52.508;13.236;2023-06-22T00:21:15;20.70;99.90
20827;DHT22;10574;52.508;13.236;2023-06-22T00:23:43;20.70;99.90
20827;DHT22;10574;52.508;13.236;2023-06-22T00:26:10;20.60;99.90
20827;DHT22;10574;52.508;13.236;2023-06-22T00:28:38;20.60;99.90
20827;DHT22;10574;52.508;13.236;2023-06-22T00:31:06;20.50;99.90
20827;DHT22;10574;52.508;13.236;2023-06-22T00:33:34;20.50;99.90
20827;DHT22;10574;52.508;13.236;2023-06-22T00:36:01;20.50;99.90
20827;DHT22;10574;52.508;13.236;2023-06-22T00:38:29;20.40;99.90
20827;DHT22;10574;52.508;13.236;2023-06-22T00:40:57;20.40;99.90
20827;DHT22;10574;52.508;13.236;2023-06-22T00:43:26;20.40;99.90
20827;DHT22;10574;52.508;13.236;2023-06-22T00:45:55;20.40;99.90
20827;DHT22;10574;52.508;13.236;2023-06-22T00:48:23;20.40;99.90
20827;DHT22;10574;52.508;13.236;2023-06-22T00:50:52;20.40;99.90
20827;DHT22;10574;52.508;13.236;2023-06-22T00:53:21;20.40;99.90
20827;DHT22;10574;52.508;13.236;2023-06-22T00:55:49;20.30;99.90
20827;DHT22;10574;52.508;13.236;2023-06-22T00:58:19;20.30;99.90
20827;DHT22;10574;52.508;13.236;2023-06-22T01:00:48;20.20;99.90
20827;DHT22;10574;52.508;13.236;2023-06-22T01:03:17;20.20;99.90
20827;DHT22;10574;52.508;13.236;2023-06-22T01:05:48;20.20;99.90
20827;DHT22;10574;52.508;13.236;2023-06-22T01:08:29;20.20;99.90
20827;DHT22;10574;52.508;13.236;2023-06-22T01:11:00;20.10;99.90
20827;DHT22;10574;52.508;13.236;2023-06-22T01:13:37;20.10;99.90
20827;DHT22;10574;52.508;13.236;2023-06-22T01:16:07;20.10;99.90
20827;DHT22;10574;52.508;13.236;2023-06-22T01:18:36;20.00;99.90
20827;DHT22;10574;52.508;13.236;2023-06-22T01:21:09;20.00;99.90
20827;DHT22;10574;52.508;13.236;2023-06-22T01:24:02;19.90;99.90
20827;DHT22;10574;52.508;13.236;2023-06-22T01:26:38;19.90;99.90
20827;DHT22;10574;52.508;13.236;2023-06-22T01:29:06;19.90;99.90
20827;DHT22;10574;52.508;13.236;2023-06-22T01:31:34;19.90;99.90
20827;DHT22;10574;52.508;13.236;2023-06-22T01:34:05;19.80;99.90
20827;DHT22;10574;52.508;13.236;2023-06-22T01:36:34;19.80;99.90
20827;DHT22;10574;52.508;13.236;2023-06-22T01:39:03;19.80;99.90
20827;DHT22;10574;52.508;13.236;2023-06-22T01:41:34;19.80;99.90
20827;DHT22;10574;52.508;13.236;2023-06-22T01:44:06;19.70;99.90
20827;DHT22;10574;52.508;13.236;2023-06-22T01:46:35;19.70;99.90
20827;DHT22;10574;52.508;13.236;2023-06-22T01:49:04;19.80;99.90
20827;DHT22;10574;52.508;13.236;2023-06-22T01:51:32;19.70;99.90
20827;DHT22;10574;52.508;13.236;2023-06-22T01:54:01;19.70;99.90
20827;DHT22;10574;52.508;13.236;2023-06-22T01:56:29;19.60;99.90
20827;DHT22;10574;52.508;13.236;2023-06-22T01:59:10;19.60;99.90
20827;DHT22;10574;52.508;13.236;2023-06-22T02:01:43;19.60;99.90
20827;DHT22;10574;52.508;13.236;2023-06-22T02:04:19;19.60;99.90
20827;DHT22;10574;52.508;13.236;2023-06-22T02:06:45;19.60;99.90
20827;DHT22;10574;52.508;13.236;2023-06-22T02:09:16;19.60;99.90
20827;DHT22;10574;52.508;13.236;2023-06-22T02:11:54;19.60;99.90
20827;DHT22;10574;52.508;13.236;2023-06-22T02:14:24;19.60;99.90
20827;DHT22;10574;52.508;13.236;2023-06-22T02:16:52;19.60;99.90
20827;DHT22;10574;52.508;13.236;2023-06-22T02:19:23;19.60;99.90
20827;DHT22;10574;52.508;13.236;2023-06-22T02:21:52;19.70;99.90
20827;DHT22;10574;52.508;13.236;2023-06-22T02:24:19;19.70;99.90
20827;DHT22;10574;52.508;13.236;2023-06-22T02:26:50;19.70;99.90
20827;DHT22;10574;52.508;13.236;2023-06-22T02:29:17;19.80;99.90
20827;DHT22;10574;52.508;13.236;2023-06-22T02:31:45;19.80;99.90
20827;DHT22;10574;52.508;13.236;2023-06-22T02:34:13;19.80;99.90
20827;DHT22;10574;52.508;13.236;2023-06-22T02:36:42;19.80;99.90
20827;DHT22;10574;52.508;13.236;2023-06-22T02:39:11;19.80;99.90
20827;DHT22;10574;52.508;13.236;2023-06-22T02:41:39;19.80;99.90
20827;DHT22;10574;52.508;13.236;2023-06-22T02:44:07;19.80;99.90
20827;DHT22;10574;52.508;13.236;2023-06-22T02:46:36;19.80;99.90
20827;DHT22;10574;52.508;13.236;2023-06-22T02:49:03;19.90;99.90
20827;DHT22;10574;52.508;13.236;2023-06-22T02:51:33;19.90;99.90
20827;DHT22;10574;52.508;13.236;2023-06-22T02:54:01;20.00;99.90
20827;DHT22;10574;52.508;13.236;2023-06-22T02:56:29;20.00;99.90
20827;DHT22;10574;52.508;13.236;2023-06-22T02:58:57;20.00;99.90
20827;DHT22;10574;52.508;13.236;2023-06-22T03:01:28;20.10;99.90
20827;DHT22;10574;52.508;13.236;2023-06-22T03:03:57;20.10;99.90
20827;DHT22;10574;52.508;13.236;2023-06-22T03:06:25;20.10;99.90
20827;DHT22;10574;52.508;13.236;2023-06-22T03:08:58;20.20;99.90
20827;DHT22;10574;52.508;13.236;2023-06-22T03:11:25;20.20;99.90
20827;DHT22;10574;52.508;13.236;2023-06-22T03:13:52;20.10;99.90
20827;DHT22;10574;52.508;13.236;2023-06-22T03:16:20;20.10;99.90
20827;DHT22;10574;52.508;13.236;2023-06-22T03:18:48;20.10;99.90
20827;DHT22;10574;52.508;13.236;2023-06-22T03:21:15;20.10;99.90
20827;DHT22;10574;52.508;13.236;2023-06-22T03:23:43;20.10;99.90
20827;DHT22;10574;52.508;13.236;2023-06-22T03:26:11;20.10;99.90
20827;DHT22;10574;52.508;13.236;2023-06-22T03:28:39;20.10;99.90
20827;DHT22;10574;52.508;13.236;2023-06-22T03:31:07;20.20;99.90
20827;DHT22;10574;52.508;13.236;2023-06-22T03:33:35;20.20;99.90
20827;DHT22;10574;52.508;13.236;2023-06-22T03:36:04;20.10;99.90
20827;DHT22;10574;52.508;13.236;2023-06-22T03:38:32;20.00;99.90
20827;DHT22;10574;52.508;13.236;2023-06-22T03:40:59;20.00;99.90
20827;DHT22;10574;52.508;13.236;2023-06-22T03:43:27;20.00;99.90
20827;DHT22;10574;52.508;13.236;2023-06-22T03:45:55;20.00;99.90
20827;DHT22;10574;52.508;13.236;2023-06-22T03:48:22;20.00;99.90
20827;DHT22;10574;52.508;13.236;2023-06-22T03:50:50;20.00;99.90
20827;DHT22;10574;52.508;13.236;2023-06-22T03:53:18;20.00;99.90
20827;DHT22;10574;52.508;13.236;2023-06-22T03:55:55;20.10;99.90
20827;DHT22;10574;52.508;13.236;2023-06-22T03:58:19;20.10;99.90
20827;DHT22;10574;52.508;13.236;2023-06-22T04:00:53;20.20;99.90
20827;DHT22;10574;52.508;13.236;2023-06-22T04:03:18;20.20;99.90
20827;DHT22;10574;52.508;13.236;2023-06-22T04:05:46;20.20;99.90
20827;DHT22;10574;52.508;13.236;2023-06-22T04:08:15;20.20;99.90
20827;DHT22;10574;52.508;13.236;2023-06-22T04:10:42;20.20;99.90
20827;DHT22;10574;52.508;13.236;2023-06-22T04:13:10;20.30;99.90
20827;DHT22;10574;52.508;13.236;2023-06-22T04:15:38;20.40;99.90
20827;DHT22;10574;52.508;13.236;2023-06-22T04:18:05;20.50;99.90
20827;DHT22;10574;52.508;13.236;2023-06-22T04:20:33;20.60;99.90
20827;DHT22;10574;52.508;13.236;2023-06-22T04:23:01;20.60;99.90
20827;DHT22;10574;52.508;13.236;2023-06-22T04:25:28;20.60;99.90
20827;DHT22;10574;52.508;13.236;2023-06-22T04:27:56;20.70;99.90
20827;DHT22;10574;52.508;13.236;2023-06-22T04:30:25;20.70;99.90
20827;DHT22;10574;52.508;13.236;2023-06-22T04:32:52;20.90;99.90
20827;DHT22;10574;52.508;13.236;2023-06-22T04:35:25;21.00;99.90
20827;DHT22;10574;52.508;13.236;2023-06-22T04:37:57;21.20;99.90
20827;DHT22;10574;52.508;13.236;2023-06-22T04:40:25;21.30;99.90
20827;DHT22;10574;52.508;13.236;2023-06-22T04:42:53;21.60;99.90
20827;DHT22;10574;52.508;13.236;2023-06-22T04:45:21;21.70;99.90
20827;DHT22;10574;52.508;13.236;2023-06-22T04:47:49;21.80;99.90
20827;DHT22;10574;52.508;13.236;2023-06-22T04:50:17;22.00;99.90
20827;DHT22;10574;52.508;13.236;2023-06-22T04:52:46;22.10;99.90
20827;DHT22;10574;52.508;13.236;2023-06-22T04:55:15;22.10;99.90
20827;DHT22;10574;52.508;13.236;2023-06-22T04:57:46;22.10;99.90
20827;DHT22;10574;52.508;13.236;2023-06-22T05:00:18;22.00;99.90
20827;DHT22;10574;52.508;13.236;2023-06-22T05:02:48;22.00;99.90
20827;DHT22;10574;52.508;13.236;2023-06-22T05:05:16;22.00;99.90
20827;DHT22;10574;52.508;13.236;2023-06-22T05:07:46;21.90;99.90
20827;DHT22;10574;52.508;13.236;2023-06-22T05:10:19;21.90;99.90
20827;DHT22;10574;52.508;13.236;2023-06-22T05:12:47;22.00;99.90
20827;DHT22;10574;52.508;13.236;2023-06-22T05:15:15;22.00;99.90
20827;DHT22;10574;52.508;13.236;2023-06-22T05:17:43;22.10;99.90
20827;DHT22;10574;52.508;13.236;2023-06-22T05:20:13;22.10;99.90
20827;DHT22;10574;52.508;13.236;2023-06-22T05:22:40;22.10;99.90
20827;DHT22;10574;52.508;13.236;2023-06-22T05:25:10;22.20;99.90
20827;DHT22;10574;52.508;13.236;2023-06-22T05:27:38;22.20;99.90
20827;DHT22;10574;52.508;13.236;2023-06-22T05:30:07;22.20;99.90
20827;DHT22;10574;52.508;13.236;2023-06-22T05:32:36;22.20;99.90
20827;DHT22;10574;52.508;13.236;2023-06-22T05:35:04;22.30;99.90
20827;DHT22;10574;52.508;13.236;2023-06-22T05:37:33;22.60;99.90
20827;DHT22;10574;52.508;13.236;2023-06-22T05:40:02;22.80;99.90
20827;DHT22;10574;52.508;13.236;2023-06-22T05:42:30;23.20;99.90
20827;DHT22;10574;52.508;13.236;2023-06-22T05:44:59;23.10;99.90
20827;DHT22;10574;52.508;13.236;2023-06-22T05:47:27;23.00;99.90
20827;DHT22;10574;52.508;13.236;2023-06-22T05:49:55;22.80;99.90
20827;DHT22;10574;52.508;13.236;2023-06-22T05:52:22;22.50;99.90
20827;DHT22;10574;52.508;13.236;2023-06-22T05:54:50;22.50;99.90
20827;DHT22;10574;52.508;13.236;2023-06-22T05:57:17;22.60;99.90
20827;DHT22;10574;52.508;13.236;2023-06-22T05:59:45;22.80;99.90
20827;DHT22;10574;52.508;13.236;2023-06-22T06:02:13;23.10;99.90
20827;DHT22;10574;52.508;13.236;2023-06-22T06:04:40;23.20;99.90
20827;DHT22;10574;52.508;13.236;2023-06-22T06:07:08;23.20;99.90
20827;DHT22;10574;52.508;13.236;2023-06-22T06:09:36;23.30;99.90
20827;DHT22;10574;52.508;13.236;2023-06-22T06:12:04;23.40;99.90
20827;DHT22;10574;52.508;13.236;2023-06-22T06:14:32;23.40;99.90
20827;DHT22;10574;52.508;13.236;2023-06-22T06:17:00;23.60;99.90
20827;DHT22;10574;52.508;13.236;2023-06-22T06:19:27;23.80;99.90
20827;DHT22;10574;52.508;13.236;2023-06-22T06:21:55;23.90;99.90
20827;DHT22;10574;52.508;13.236;2023-06-22T06:24:23;24.10;99.90
20827;DHT22;10574;52.508;13.236;2023-06-22T06:26:59;24.40;99.90
20827;DHT22;10574;52.508;13.236;2023-06-22T06:29:34;24.60;99.90
20827;DHT22;10574;52.508;13.236;2023-06-22T06:32:01;24.60;99.90
20827;DHT22;10574;52.508;13.236;2023-06-22T06:34:29;24.60;99.90
20827;DHT22;10574;52.508;13.236;2023-06-22T06:36:57;24.60;99.90
20827;DHT22;10574;52.508;13.236;2023-06-22T06:39:24;24.70;99.90
20827;DHT22;10574;52.508;13.236;2023-06-22T06:41:52;24.60;99.90
20827;DHT22;10574;52.508;13.236;2023-06-22T06:44:20;24.80;99.90
20827;DHT22;10574;52.508;13.236;2023-06-22T06:46:48;24.80;99.90
20827;DHT22;10574;52.508;13.236;2023-06-22T06:49:15;24.50;99.90
20827;DHT22;10574;52.508;13.236;2023-06-22T06:51:43;24.40;99.90
20827;DHT22;10574;52.508;13.236;2023-06-22T06:54:11;24.70;99.90
20827;DHT22;10574;52.508;13.236;2023-06-22T06:56:39;24.70;99.90
20827;DHT22;10574;52.508;13.236;2023-06-22T06:59:07;24.60;99.90
20827;DHT22;10574;52.508;13.236;2023-06-22T07:01:35;24.40;99.90
20827;DHT22;10574;52.508;13.236;2023-06-22T07:04:02;24.40;99.90
20827;DHT22;10574;52.508;13.236;2023-06-22T07:06:30;24.80;99.90
20827;DHT22;10574;52.508;13.236;2023-06-22T07:09:00;25.00;99.90
20827;DHT22;10574;52.508;13.236;2023-06-22T07:11:28;24.60;99.90
20827;DHT22;10574;52.508;13.236;2023-06-22T07:13:56;24.60;99.90
20827;DHT22;10574;52.508;13.236;2023-06-22T07:16:23;24.60;99.90
20827;DHT22;10574;52.508;13.236;2023-06-22T07:18:52;24.40;99.90
20827;DHT22;10574;52.508;13.236;2023-06-22T07:21:20;24.40;99.90
20827;DHT22;10574;52.508;13.236;2023-06-22T07:23:47;24.70;99.90
20827;DHT22;10574;52.508;13.236;2023-06-22T07:26:15;24.80;99.90
20827;DHT22;10574;52.508;13.236;2023-06-22T07:28:43;24.70;99.90
20827;DHT22;10574;52.508;13.236;2023-06-22T07:31:11;24.60;99.90
20827;DHT22;10574;52.508;13.236;2023-06-22T07:33:39;24.40;99.90
20827;DHT22;10574;52.508;13.236;2023-06-22T07:36:06;24.50;99.90
20827;DHT22;10574;52.508;13.236;2023-06-22T07:38:34;24.30;99.90
20827;DHT22;10574;52.508;13.236;2023-06-22T07:41:02;24.40;99.90
20827;DHT22;10574;52.508;13.236;2023-06-22T07:43:32;24.60;99.90
20827;DHT22;10574;52.508;13.236;2023-06-22T07:46:01;24.50;99.90
20827;DHT22;10574;52.508;13.236;2023-06-22T07:48:28;24.50;99.90
20827;DHT22;10574;52.508;13.236;2023-06-22T07:50:57;24.60;99.90
20827;DHT22;10574;52.508;13.236;2023-06-22T07:53:25;24.70;99.90
20827;DHT22;10574;52.508;13.236;2023-06-22T07:55:52;24.80;99.90
20827;DHT22;10574;52.508;13.236;2023-06-22T07:58:20;24.80;99.90
20827;DHT22;10574;52.508;13.236;2023-06-22T08:00:48;24.60;99.90
20827;DHT22;10574;52.508;13.236;2023-06-22T08:03:16;24.60;99.90
20827;DHT22;10574;52.508;13.236;2023-06-22T08:05:44;24.90;99.90
20827;DHT22;10574;52.508;13.236;2023-06-22T08:08:12;25.20;99.90
20827;DHT22;10574;52.508;13.236;2023-06-22T08:10:41;25.10;99.90
20827;DHT22;10574;52.508;13.236;2023-06-22T08:13:10;25.20;99.90
20827;DHT22;10574;52.508;13.236;2023-06-22T08:15:38;25.20;99.90
20827;DHT22;10574;52.508;13.236;2023-06-22T08:18:06;25.30;99.90
20827;DHT22;10574;52.508;13.236;2023-06-22T08:20:34;25.50;99.90
20827;DHT22;10574;52.508;13.236;2023-06-22T08:23:01;25.60;99.90
20827;DHT22;10574;52.508;13.236;2023-06-22T08:25:31;25.60;99.90
20827;DHT22;10574;52.508;13.236;2023-06-22T08:27:59;25.50;99.90
20827;DHT22;10574;52.508;13.236;2023-06-22T08:30:27;25.40;99.90
20827;DHT22;10574;52.508;13.236;2023-06-22T08:32:55;25.40;99.90
20827;DHT22;10574;52.508;13.236;2023-06-22T08:35:23;25.50;99.90
20827;DHT22;10574;52.508;13.236;2023-06-22T08:37:51;25.30;99.90
20827;DHT22;10574;52.508;13.236;2023-06-22T08:40:21;25.20;99.90
20827;DHT22;10574;52.508;13.236;2023-06-22T08:42:49;25.00;99.90
20827;DHT22;10574;52.508;13.236;2023-06-22T08:45:17;24.80;99.90
20827;DHT22;10574;52.508;13.236;2023-06-22T08:47:45;24.80;99.90
20827;DHT22;10574;52.508;13.236;2023-06-22T08:50:13;25.00;99.90
20827;DHT22;10574;52.508;13.236;2023-06-22T08:52:41;25.20;99.90
20827;DHT22;10574;52.508;13.236;2023-06-22T08:55:09;25.20;99.90
20827;DHT22;10574;52.508;13.236;2023-06-22T08:57:37;25.50;99.90
20827;DHT22;10574;52.508;13.236;2023-06-22T09:00:07;25.60;99.90
20827;DHT22;10574;52.508;13.236;2023-06-22T09:02:46;25.40;99.90
20827;DHT22;10574;52.508;13.236;2023-06-22T09:05:14;25.40;99.90
20827;DHT22;10574;52.508;13.236;2023-06-22T09:07:44;25.50;99.90
20827;DHT22;10574;52.508;13.236;2023-06-22T09:10:12;25.40;99.90
20827;DHT22;10574;52.508;13.236;2023-06-22T09:12:40;25.70;99.90
20827;DHT22;10574;52.508;13.236;2023-06-22T09:15:11;25.90;99.90
20827;DHT22;10574;52.508;13.236;2023-06-22T09:17:40;26.10;99.90
20827;DHT22;10574;52.508;13.236;2023-06-22T09:20:09;26.10;99.90
20827;DHT22;10574;52.508;13.236;2023-06-22T09:22:37;26.00;99.90
20827;DHT22;10574;52.508;13.236;2023-06-22T09:25:06;25.90;99.90
20827;DHT22;10574;52.508;13.236;2023-06-22T09:27:34;25.90;99.90
20827;DHT22;10574;52.508;13.236;2023-06-22T09:30:02;26.10;99.90
20827;DHT22;10574;52.508;13.236;2023-06-22T09:32:30;26.10;99.90
20827;DHT22;10574;52.508;13.236;2023-06-22T09:35:01;26.00;99.90
20827;DHT22;10574;52.508;13.236;2023-06-22T09:37:28;26.00;99.90
20827;DHT22;10574;52.508;13.236;2023-06-22T09:39:56;26.10;99.90
20827;DHT22;10574;52.508;13.236;2023-06-22T09:42:23;26.10;99.90
20827;DHT22;10574;52.508;13.236;2023-06-22T09:44:51;26.10;99.90
20827;DHT22;10574;52.508;13.236;2023-06-22T09:47:20;26.20;99.90
20827;DHT22;10574;52.508;13.236;2023-06-22T09:49:48;26.20;99.90
20827;DHT22;10574;52.508;13.236;2023-06-22T09:52:16;26.20;99.90
20827;DHT22;10574;52.508;13.236;2023-06-22T09:54:43;26.40;99.90
20827;DHT22;10574;52.508;13.236;2023-06-22T09:57:11;26.70;99.90
20827;DHT22;10574;52.508;13.236;2023-06-22T09:59:39;26.90;99.90
20827;DHT22;10574;52.508;13.236;2023-06-22T10:02:07;27.10;96.90
20827;DHT22;10574;52.508;13.236;2023-06-22T10:04:35;27.10;95.60
20827;DHT22;10574;52.508;13.236;2023-06-22T10:07:04;27.00;96.90
20827;DHT22;10574;52.508;13.236;2023-06-22T10:09:31;27.00;96.80
20827;DHT22;10574;52.508;13.236;2023-06-22T10:11:59;27.10;99.90
20827;DHT22;10574;52.508;13.236;2023-06-22T10:14:27;27.20;96.20
20827;DHT22;10574;52.508;13.236;2023-06-22T10:16:56;27.20;97.10
20827;DHT22;10574;52.508;13.236;2023-06-22T10:19:24;27.40;99.60
20827;DHT22;10574;52.508;13.236;2023-06-22T10:21:51;27.70;98.80
20827;DHT22;10574;52.508;13.236;2023-06-22T10:24:20;27.90;94.10
20827;DHT22;10574;52.508;13.236;2023-06-22T10:26:47;27.80;95.60
20827;DHT22;10574;52.508;13.236;2023-06-22T10:29:15;27.70;94.70
20827;DHT22;10574;52.508;13.236;2023-06-22T10:31:43;27.60;96.70
20827;DHT22;10574;52.508;13.236;2023-06-22T10:34:10;27.60;96.20
20827;DHT22;10574;52.508;13.236;2023-06-22T10:36:39;27.60;96.90
20827;DHT22;10574;52.508;13.236;2023-06-22T10:39:07;27.70;95.50
20827;DHT22;10574;52.508;13.236;2023-06-22T10:41:35;27.80;95.60
20827;DHT22;10574;52.508;13.236;2023-06-22T10:44:03;27.50;95.20
20827;DHT22;10574;52.508;13.236;2023-06-22T10:46:31;27.00;95.40
20827;DHT22;10574;52.508;13.236;2023-06-22T10:48:59;26.90;96.50
20827;DHT22;10574;52.508;13.236;2023-06-22T10:51:27;26.50;96.70
20827;DHT22;10574;52.508;13.236;2023-06-22T10:53:54;26.60;97.00
20827;DHT22;10574;52.508;13.236;2023-06-22T10:56:22;26.70;97.80
20827;DHT22;10574;52.508;13.236;2023-06-22T10:58:50;27.00;99.30
20827;DHT22;10574;52.508;13.236;2023-06-22T11:01:18;27.40;97.00
20827;DHT22;10574;52.508;13.236;2023-06-22T11:03:45;27.20;95.00
20827;DHT22;10574;52.508;13.236;2023-06-22T11:06:14;27.20;95.30
20827;DHT22;10574;52.508;13.236;2023-06-22T11:08:44;27.50;96.10
20827;DHT22;10574;52.508;13.236;2023-06-22T11:11:12;27.90;97.80
20827;DHT22;10574;52.508;13.236;2023-06-22T11:13:40;28.40;96.60
20827;DHT22;10574;52.508;13.236;2023-06-22T11:16:07;28.60;92.90
20827;DHT22;10574;52.508;13.236;2023-06-22T11:18:36;28.50;93.80
20827;DHT22;10574;52.508;13.236;2023-06-22T11:21:04;28.80;94.80
20827;DHT22;10574;52.508;13.236;2023-06-22T11:23:32;28.40;93.00
20827;DHT22;10574;52.508;13.236;2023-06-22T11:26:00;28.20;92.80
20827;DHT22;10574;52.508;13.236;2023-06-22T11:28:28;27.80;93.30
20827;DHT22;10574;52.508;13.236;2023-06-22T11:30:55;28.20;94.80
20827;DHT22;10574;52.508;13.236;2023-06-22T11:33:23;28.30;92.30
20827;DHT22;10574;52.508;13.236;2023-06-22T11:35:51;28.50;93.30
20827;DHT22;10574;52.508;13.236;2023-06-22T11:38:20;28.80;92.80
20827;DHT22;10574;52.508;13.236;2023-06-22T11:40:50;28.60;92.30
20827;DHT22;10574;52.508;13.236;2023-06-22T11:43:19;28.10;92.10
20827;DHT22;10574;52.508;13.236;2023-06-22T11:45:49;27.90;93.20
20827;DHT22;10574;52.508;13.236;2023-06-22T11:48:17;27.80;93.00
20827;DHT22;10574;52.508;13.236;2023-06-22T11:50:45;27.60;93.50
20827;DHT22;10574;52.508;13.236;2023-06-22T11:53:12;27.90;93.50
20827;DHT22;10574;52.508;13.236;2023-06-22T11:55:42;28.00;92.20
20827;DHT22;10574;52.508;13.236;2023-06-22T11:58:09;28.00;91.70
20827;DHT22;10574;52.508;13.236;2023-06-22T12:00:38;27.90;92.40
20827;DHT22;10574;52.508;13.236;2023-06-22T12:03:06;27.50;92.00
20827;DHT22;10574;52.508;13.236;2023-06-22T12:05:34;27.40;92.60
20827;DHT22;10574;52.508;13.236;2023-06-22T12:08:01;27.50;93.00
20827;DHT22;10574;52.508;13.236;2023-06-22T12:10:29;27.70;92.90
20827;DHT22;10574;52.508;13.236;2023-06-22T12:12:57;27.80;92.60
20827;DHT22;10574;52.508;13.236;2023-06-22T12:15:27;28.00;92.10
20827;DHT22;10574;52.508;13.236;2023-06-22T12:17:55;28.10;91.90
20827;DHT22;10574;52.508;13.236;2023-06-22T12:20:24;28.00;91.50
20827;DHT22;10574;52.508;13.236;2023-06-22T12:22:52;28.20;92.50
20827;DHT22;10574;52.508;13.236;2023-06-22T12:25:21;28.20;91.80
20827;DHT22;10574;52.508;13.236;2023-06-22T12:27:51;28.00;91.50
20827;DHT22;10574;52.508;13.236;2023-06-22T12:30:19;28.10;91.70
20827;DHT22;10574;52.508;13.236;2023-06-22T12:32:47;28.00;90.70
20827;DHT22;10574;52.508;13.236;2023-06-22T12:35:16;28.10;91.30
20827;DHT22;10574;52.508;13.236;2023-06-22T12:37:44;28.00;91.50
20827;DHT22;10574;52.508;13.236;2023-06-22T12:40:12;28.10;91.40
20827;DHT22;10574;52.508;13.236;2023-06-22T12:42:40;28.10;90.70
20827;DHT22;10574;52.508;13.236;2023-06-22T12:45:09;27.70;90.90
20827;DHT22;10574;52.508;13.236;2023-06-22T12:47:37;27.60;91.30
20827;DHT22;10574;52.508;13.236;2023-06-22T12:50:06;27.50;91.70
20827;DHT22;10574;52.508;13.236;2023-06-22T12:52:36;27.60;91.70
20827;DHT22;10574;52.508;13.236;2023-06-22T12:55:06;27.80;91.00
20827;DHT22;10574;52.508;13.236;2023-06-22T12:57:34;28.00;90.50
20827;DHT22;10574;52.508;13.236;2023-06-22T13:00:02;28.00;90.90
20827;DHT22;10574;52.508;13.236;2023-06-22T13:02:31;28.20;91.50
20827;DHT22;10574;52.508;13.236;2023-06-22T13:04:59;28.30;90.90
20827;DHT22;10574;52.508;13.236;2023-06-22T13:07:27;28.60;90.00
20827;DHT22;10574;52.508;13.236;2023-06-22T13:09:54;28.70;89.50
20827;DHT22;10574;52.508;13.236;2023-06-22T13:12:22;28.20;89.80
20827;DHT22;10574;52.508;13.236;2023-06-22T13:14:51;28.40;88.70
20827;DHT22;10574;52.508;13.236;2023-06-22T13:17:18;28.60;89.50
20827;DHT22;10574;52.508;13.236;2023-06-22T13:19:47;28.80;89.40
20827;DHT22;10574;52.508;13.236;2023-06-22T13:22:32;29.00;89.00
20827;DHT22;10574;52.508;13.236;2023-06-22T13:25:00;28.90;87.80
20827;DHT22;10574;52.508;13.236;2023-06-22T13:27:28;28.70;89.60
20827;DHT22;10574;52.508;13.236;2023-06-22T13:29:56;28.80;87.90
20827;DHT22;10574;52.508;13.236;2023-06-22T13:32:25;28.80;90.40
20827;DHT22;10574;52.508;13.236;2023-06-22T13:34:53;29.10;89.50
20827;DHT22;10574;52.508;13.236;2023-06-22T13:37:22;29.30;86.70
20827;DHT22;10574;52.508;13.236;2023-06-22T13:39:50;29.10;87.60
20827;DHT22;10574;52.508;13.236;2023-06-22T13:42:18;28.70;87.80
20827;DHT22;10574;52.508;13.236;2023-06-22T13:44:46;29.00;88.00
20827;DHT22;10574;52.508;13.236;2023-06-22T13:47:13;29.10;87.40
20827;DHT22;10574;52.508;13.236;2023-06-22T13:49:41;29.20;86.70
20827;DHT22;10574;52.508;13.236;2023-06-22T13:52:09;29.00;86.80
20827;DHT22;10574;52.508;13.236;2023-06-22T13:54:38;28.60;87.50
20827;DHT22;10574;52.508;13.236;2023-06-22T13:57:08;28.60;87.60
20827;DHT22;10574;52.508;13.236;2023-06-22T13:59:36;28.70;88.40
20827;DHT22;10574;52.508;13.236;2023-06-22T14:02:04;29.00;87.80
20827;DHT22;10574;52.508;13.236;2023-06-22T14:04:32;28.70;88.00
20827;DHT22;10574;52.508;13.236;2023-06-22T14:07:00;28.80;87.70
20827;DHT22;10574;52.508;13.236;2023-06-22T14:09:27;29.00;87.90
20827;DHT22;10574;52.508;13.236;2023-06-22T14:11:55;29.40;87.30
20827;DHT22;10574;52.508;13.236;2023-06-22T14:14:23;29.30;86.70
20827;DHT22;10574;52.508;13.236;2023-06-22T14:16:51;29.20;86.30
20827;DHT22;10574;52.508;13.236;2023-06-22T14:19:18;28.70;87.50
20827;DHT22;10574;52.508;13.236;2023-06-22T14:21:46;28.40;87.90
20827;DHT22;10574;52.508;13.236;2023-06-22T14:24:14;28.50;88.40
20827;DHT22;10574;52.508;13.236;2023-06-22T14:26:42;28.40;90.00
20827;DHT22;10574;52.508;13.236;2023-06-22T14:29:09;28.50;88.20
20827;DHT22;10574;52.508;13.236;2023-06-22T14:31:37;28.60;90.10
20827;DHT22;10574;52.508;13.236;2023-06-22T14:34:05;29.00;88.70
20827;DHT22;10574;52.508;13.236;2023-06-22T14:36:33;29.50;88.50
20827;DHT22;10574;52.508;13.236;2023-06-22T14:39:00;29.40;85.90
20827;DHT22;10574;52.508;13.236;2023-06-22T14:41:34;29.40;86.60
20827;DHT22;10574;52.508;13.236;2023-06-22T14:43:58;29.10;86.80
20827;DHT22;10574;52.508;13.236;2023-06-22T14:46:26;29.10;87.90
20827;DHT22;10574;52.508;13.236;2023-06-22T14:48:54;29.30;86.00
20827;DHT22;10574;52.508;13.236;2023-06-22T14:51:22;29.70;87.00
20827;DHT22;10574;52.508;13.236;2023-06-22T14:53:50;29.70;85.10
20827;DHT22;10574;52.508;13.236;2023-06-22T14:56:17;29.60;85.40
20827;DHT22;10574;52.508;13.236;2023-06-22T14:58:45;29.30;84.50
20827;DHT22;10574;52.508;13.236;2023-06-22T15:01:14;29.20;85.80
20827;DHT22;10574;52.508;13.236;2023-06-22T15:03:42;29.20;86.80
20827;DHT22;10574;52.508;13.236;2023-06-22T15:06:10;29.10;87.50
20827;DHT22;10574;52.508;13.236;2023-06-22T15:08:39;29.10;87.20
20827;DHT22;10574;52.508;13.236;2023-06-22T15:11:07;29.20;87.60
20827;DHT22;10574;52.508;13.236;2023-06-22T15:13:38;29.50;86.70
20827;DHT22;10574;52.508;13.236;2023-06-22T15:16:04;29.60;85.00
20827;DHT22;10574;52.508;13.236;2023-06-22T15:18:33;29.60;85.60
20827;DHT22;10574;52.508;13.236;2023-06-22T15:21:02;29.30;85.50
20827;DHT22;10574;52.508;13.236;2023-06-22T15:23:31;29.40;86.50